Página principal
METAR-TAF:

METAR-TAF

Aeroportos :

Amã, Jordânia

latitude: 31-59N, longitude: 035-59E, altura: 767 m

Observação actual do tempo

O boletim foi feito há 51 minutos, às 09:00 UTC
Vento 8 kt de sul
Temperatura 33°C
Humidade 19%
Pressão 1013 hPa
Visibilidade: 4000 m
bruma

METAR: OJAM 270900Z 17008KT 4000 HZ NSC 33/06 Q1013 NOSIG

Hora: 12:51 (09:51 UTC)

Previsão

O boletim foi feito há 4 horas e 31 minutos, às 05:20 UTC
Previsão válida de 27 às 06 UTC a 28 às 12 UTC
Vento kt de norte
Visibilidade: 3000 m
bruma
Tornando-se
de 27 às 12 UTC a 27 às 14 UTC
Vento 10 kt de oeste
Visibilidade: 5000 m
bruma

TAF: OJAM 270520Z 2706/2812 00000KT 3000 HZ NSC BECMG 2712/2714 28010KT 5000 HZ

Observações e previsões do tempo de mais de 4000 aeroportos (mensagens METAR e TAF).

As estações disponíveis são os pontos amarelos e vermelhos sobre o mapa.

Mova o rato sobre o mapa para ver o nome da estação.

Depois clique no ponto para visualizar as observações e previsões meteorológicas.

Para alterar o mapa : clique nos botões verdes com uma cruz preta para aumentar o zoom; no botão verde com uma pitada de zoom; ou nas setas verdes para mapas adjacentes.


METAR-TAF: